createdAt,value
2018-03-31T00:00:07.419Z,7.11
2018-03-31T00:01:07.632Z,7
2018-03-31T00:02:07.356Z,7.06
2018-03-31T00:03:07.580Z,7.11
2018-03-31T00:04:07.555Z,7.02
2018-03-31T00:05:07.529Z,6.92
2018-03-31T00:06:07.251Z,7.03
2018-03-31T00:07:06.967Z,7.02
2018-03-31T00:08:07.220Z,6.93
2018-03-31T00:09:07.412Z,6.95
2018-03-31T00:10:07.390Z,6.95
2018-03-31T00:11:07.361Z,6.92
2018-03-31T00:12:07.329Z,6.88
2018-03-31T00:13:07.052Z,6.88
2018-03-31T00:14:07.284Z,6.89
2018-03-31T00:15:06.999Z,6.75
2018-03-31T00:16:06.970Z,6.72
2018-03-31T00:17:06.946Z,6.81
2018-03-31T00:18:06.668Z,6.79
2018-03-31T00:19:07.142Z,6.77
2018-03-31T00:20:06.865Z,6.72
2018-03-31T00:21:07.089Z,6.75
2018-03-31T00:22:06.808Z,6.78
2018-03-31T00:23:06.783Z,6.75
2018-03-31T00:24:06.756Z,6.72
2018-03-31T00:25:06.766Z,6.74
2018-03-31T00:26:06.950Z,6.66
2018-03-31T00:27:06.424Z,6.75
2018-03-31T00:28:06.903Z,6.72
2018-03-31T00:29:06.626Z,6.7
2018-03-31T00:30:06.842Z,6.74
2018-03-31T00:31:06.811Z,6.64
2018-03-31T00:32:06.534Z,6.62
2018-03-31T00:33:06.509Z,6.66
2018-03-31T00:34:06.729Z,6.6
2018-03-31T00:35:06.705Z,6.67
2018-03-31T00:36:06.676Z,6.69
2018-03-31T00:37:06.396Z,6.6
2018-03-31T00:38:06.375Z,6.64
2018-03-31T00:39:06.342Z,6.64
2018-03-31T00:40:06.343Z,6.6
2018-03-31T00:41:06.289Z,6.66
2018-03-31T00:42:06.509Z,6.62
2018-03-31T00:43:05.986Z,6.59
2018-03-31T00:44:06.206Z,6.64
2018-03-31T00:45:05.929Z,6.59
2018-03-31T00:46:06.151Z,6.64
2018-03-31T00:47:06.125Z,6.57
2018-03-31T00:48:06.352Z,6.59
2018-03-31T00:49:06.110Z,6.45
2018-03-31T00:50:06.038Z,6.45
2018-03-31T00:51:06.263Z,6.52
2018-03-31T00:52:06.239Z,6.51
2018-03-31T00:53:05.970Z,6.49
2018-03-31T00:54:06.192Z,6.56
2018-03-31T00:55:06.149Z,6.51
2018-03-31T00:56:05.880Z,6.51
2018-03-31T00:57:05.849Z,6.48
2018-03-31T00:58:06.072Z,6.56
2018-03-31T00:59:05.794Z,6.56
2018-03-31T01:00:05.770Z,6.62
2018-03-31T01:01:05.980Z,6.6
2018-03-31T01:02:05.715Z,6.6
2018-03-31T01:03:05.927Z,6.56
2018-03-31T01:04:05.658Z,6.54
2018-03-31T01:05:05.378Z,6.49
2018-03-31T01:06:05.598Z,6.59
2018-03-31T01:07:05.820Z,6.49
2018-03-31T01:08:05.793Z,6.51
2018-03-31T01:09:05.770Z,6.52
2018-03-31T01:10:05.740Z,6.49
2018-03-31T01:11:05.717Z,6.57
2018-03-31T01:12:05.681Z,6.51
2018-03-31T01:13:05.402Z,6.51
2018-03-31T01:14:05.377Z,6.57
2018-03-31T01:15:05.603Z,6.52
2018-03-31T01:16:05.320Z,6.49
2018-03-31T01:17:05.546Z,6.49
2018-03-31T01:18:05.267Z,6.52
2018-03-31T01:19:05.486Z,6.51
2018-03-31T01:20:05.466Z,6.46
2018-03-31T01:21:05.433Z,6.49
2018-03-31T01:22:05.159Z,6.52
2018-03-31T01:23:05.379Z,6.51
2018-03-31T01:24:05.353Z,6.48
2018-03-31T01:25:05.079Z,6.46
2018-03-31T01:26:05.296Z,6.45
2018-03-31T01:27:05.267Z,6.39
2018-03-31T01:28:05.237Z,6.44
2018-03-31T01:29:05.213Z,6.44
2018-03-31T01:30:04.931Z,6.44
2018-03-31T01:31:04.903Z,6.39
2018-03-31T01:32:05.130Z,6.39
2018-03-31T01:33:04.851Z,6.33
2018-03-31T01:34:05.084Z,6.27
2018-03-31T01:35:05.045Z,6.33
2018-03-31T01:36:05.038Z,6.31
2018-03-31T01:37:04.742Z,6.28
2018-03-31T01:38:04.959Z,6.24
2018-03-31T01:39:04.935Z,6.19
2018-03-31T01:40:04.663Z,6.14
2018-03-31T01:41:04.382Z,6.16
2018-03-31T01:42:04.859Z,6.11
2018-03-31T01:43:04.574Z,6.07
2018-03-31T01:44:04.800Z,6.16
2018-03-31T01:45:04.771Z,6.07
2018-03-31T01:46:04.748Z,6.07
2018-03-31T01:47:04.709Z,6.16
2018-03-31T01:48:04.682Z,6.08
2018-03-31T01:49:04.408Z,6.05
2018-03-31T01:50:04.628Z,5.99
2018-03-31T01:51:04.608Z,6.02
2018-03-31T01:52:05.575Z,6.02
2018-03-31T01:53:04.298Z,5.97
2018-03-31T01:54:04.269Z,6.07
2018-03-31T01:55:04.498Z,5.91
2018-03-31T01:56:04.214Z,5.89
2018-03-31T01:57:04.434Z,5.98
2018-03-31T01:58:04.157Z,5.87
2018-03-31T01:59:04.135Z,5.94
2018-03-31T02:00:03.852Z,5.91
2018-03-31T02:01:04.072Z,5.93
2018-03-31T02:02:04.053Z,5.91
2018-03-31T02:03:04.269Z,5.91
2018-03-31T02:04:04.237Z,5.97
2018-03-31T02:05:03.959Z,5.93
2018-03-31T02:06:03.936Z,5.94
2018-03-31T02:07:03.906Z,5.93
2018-03-31T02:08:03.879Z,5.98
2018-03-31T02:09:03.854Z,5.9
2018-03-31T02:10:03.821Z,5.94
2018-03-31T02:11:04.046Z,5.94
2018-03-31T02:12:04.012Z,5.94
2018-03-31T02:13:03.984Z,6.01
2018-03-31T02:14:03.957Z,6.11
2018-03-31T02:15:03.945Z,6.02
2018-03-31T02:16:03.900Z,6.02
2018-03-31T02:17:03.875Z,6.02
2018-03-31T02:18:03.597Z,6.07
2018-03-31T02:19:03.565Z,6.09
2018-03-31T02:20:03.783Z,6.17
2018-03-31T02:21:03.512Z,6.11
2018-03-31T02:22:03.732Z,6.12
2018-03-31T02:23:03.705Z,6.12
2018-03-31T02:24:03.678Z,6.14
2018-03-31T02:25:03.646Z,6.11
2018-03-31T02:26:03.617Z,6.08
2018-03-31T02:27:03.344Z,6.14
2018-03-31T02:28:03.563Z,6.17
2018-03-31T02:29:03.285Z,6.16
2018-03-31T02:30:03.264Z,6.09
2018-03-31T02:31:03.247Z,6.16
2018-03-31T02:32:03.463Z,6.12
2018-03-31T02:33:03.429Z,6.08
2018-03-31T02:34:03.404Z,6.04
2018-03-31T02:35:03.382Z,6.05
2018-03-31T02:36:03.095Z,6.05
2018-03-31T02:37:03.063Z,5.97
2018-03-31T02:38:03.040Z,5.98
2018-03-31T02:39:03.259Z,6.07
2018-03-31T02:40:02.731Z,6.04
2018-03-31T02:41:03.221Z,6.02
2018-03-31T02:42:03.173Z,6.05
2018-03-31T02:43:03.144Z,6.01
2018-03-31T02:44:03.126Z,6.07
2018-03-31T02:45:03.093Z,5.99
2018-03-31T02:46:03.065Z,5.93
2018-03-31T02:47:03.031Z,5.93
2018-03-31T02:48:03.017Z,5.93
2018-03-31T02:49:02.983Z,5.93
2018-03-31T02:50:02.450Z,5.93
2018-03-31T02:51:02.918Z,5.86
2018-03-31T02:52:02.900Z,5.83
2018-03-31T02:53:02.894Z,5.86
2018-03-31T02:54:02.588Z,5.75
2018-03-31T02:55:02.558Z,5.87
2018-03-31T02:56:02.813Z,5.75
2018-03-31T02:57:02.758Z,5.75
2018-03-31T02:58:02.472Z,5.71
2018-03-31T02:59:02.706Z,5.69
2018-03-31T03:00:02.432Z,5.69
2018-03-31T03:01:02.652Z,5.65
2018-03-31T03:02:02.367Z,5.66
2018-03-31T03:03:02.594Z,5.69
2018-03-31T03:04:02.557Z,5.66
2018-03-31T03:05:02.527Z,5.68
2018-03-31T03:06:02.499Z,5.64
2018-03-31T03:07:02.485Z,5.64
2018-03-31T03:08:02.450Z,5.66
2018-03-31T03:09:02.420Z,5.69
2018-03-31T03:10:02.382Z,5.66
2018-03-31T03:11:02.375Z,5.66
2018-03-31T03:12:02.327Z,5.65
2018-03-31T03:13:02.297Z,5.64
2018-03-31T03:14:02.284Z,5.64
2018-03-31T03:15:02.238Z,5.69
2018-03-31T03:16:01.963Z,5.68
2018-03-31T03:17:02.268Z,5.68
2018-03-31T03:18:02.154Z,5.65
2018-03-31T03:19:02.127Z,5.68
2018-03-31T03:20:02.102Z,5.65
2018-03-31T03:21:02.069Z,5.64
2018-03-31T03:22:02.049Z,5.62
2018-03-31T03:23:02.015Z,5.66
2018-03-31T03:24:01.991Z,5.71
2018-03-31T03:25:01.962Z,5.73
2018-03-31T03:26:01.929Z,5.76
2018-03-31T03:27:01.899Z,5.8
2018-03-31T03:28:01.873Z,5.69
2018-03-31T03:29:01.870Z,5.82
2018-03-31T03:30:01.818Z,5.75
2018-03-31T03:31:01.796Z,5.83
2018-03-31T03:32:01.759Z,5.89
2018-03-31T03:33:01.733Z,5.87
2018-03-31T03:34:01.699Z,5.83
2018-03-31T03:35:01.681Z,5.73
2018-03-31T03:36:01.647Z,5.86
2018-03-31T03:37:01.365Z,5.83
2018-03-31T03:38:01.339Z,5.83
2018-03-31T03:39:01.310Z,5.84
2018-03-31T03:40:01.286Z,5.86
2018-03-31T03:41:01.503Z,5.83
2018-03-31T03:42:01.472Z,5.8
2018-03-31T03:43:01.450Z,5.89
2018-03-31T03:44:01.416Z,5.79
2018-03-31T03:45:01.158Z,5.84
2018-03-31T03:46:01.369Z,5.84
2018-03-31T03:47:01.336Z,5.76
2018-03-31T03:48:01.306Z,5.82
2018-03-31T03:49:01.384Z,5.84
2018-03-31T03:50:01.250Z,5.82
2018-03-31T03:51:01.218Z,5.93
2018-03-31T03:52:01.190Z,5.89
2018-03-31T03:53:00.913Z,5.82
2018-03-31T03:54:01.133Z,5.82
2018-03-31T03:55:00.855Z,5.86
2018-03-31T03:56:01.077Z,5.9
2018-03-31T03:57:00.799Z,5.82
2018-03-31T03:58:01.032Z,5.79
2018-03-31T03:59:00.992Z,5.79
2018-03-31T04:00:00.716Z,5.69
2018-03-31T04:01:00.941Z,5.72
2018-03-31T04:02:00.910Z,5.73
2018-03-31T04:03:00.627Z,5.61
2018-03-31T04:04:00.599Z,5.69
2018-03-31T04:05:00.828Z,5.57
2018-03-31T04:06:00.796Z,5.62
2018-03-31T04:07:00.771Z,5.54
2018-03-31T04:08:00.491Z,5.66
2018-03-31T04:09:00.712Z,5.66
2018-03-31T04:10:00.680Z,5.47
2018-03-31T04:11:00.407Z,5.48
2018-03-31T04:12:00.629Z,5.44
2018-03-31T04:13:00.596Z,5.43
2018-03-31T04:14:00.570Z,5.39
2018-03-31T04:15:00.287Z,5.39
2018-03-31T04:16:00.266Z,5.39
2018-03-31T04:17:00.233Z,5.43
2018-03-31T04:18:00.204Z,5.44
2018-03-31T04:19:00.426Z,5.41
2018-03-31T04:20:00.391Z,5.38
2018-03-31T04:21:00.369Z,5.39
2018-03-31T04:22:00.356Z,5.39
2018-03-31T04:23:00.319Z,5.43
2018-03-31T04:24:00.280Z,5.35
2018-03-31T04:25:00.255Z,5.28
2018-03-31T04:26:00.225Z,5.25
2018-03-31T04:27:00.195Z,5.3
2018-03-31T04:28:00.170Z,5.28
2018-03-31T04:29:00.139Z,5.3
2018-03-31T04:29:59.864Z,5.25
2018-03-31T04:31:00.082Z,5.26
2018-03-31T04:32:00.054Z,5.32
2018-03-31T04:33:00.040Z,5.2
2018-03-31T04:34:00.001Z,5.26
2018-03-31T04:34:59.968Z,5.15
2018-03-31T04:35:59.944Z,5.2
2018-03-31T04:36:59.662Z,5.26
2018-03-31T04:37:59.883Z,5.17
2018-03-31T04:38:59.602Z,5.14
2018-03-31T04:39:59.826Z,5.11
2018-03-31T04:40:59.295Z,5.18
2018-03-31T04:41:59.519Z,5.25
2018-03-31T04:42:59.490Z,5.14
2018-03-31T04:43:59.714Z,5.18
2018-03-31T04:44:59.676Z,5.17
2018-03-31T04:45:59.406Z,5.2
2018-03-31T04:46:59.623Z,5.25
2018-03-31T04:47:59.347Z,5.35
2018-03-31T04:48:59.567Z,5.28
2018-03-31T04:49:59.543Z,5.33
2018-03-31T04:50:59.263Z,5.33
2018-03-31T04:51:59.525Z,5.36
2018-03-31T04:52:59.456Z,5.32
2018-03-31T04:53:59.174Z,5.38
2018-03-31T04:54:59.400Z,5.32
2018-03-31T04:55:59.374Z,5.35
2018-03-31T04:56:59.338Z,5.18
2018-03-31T04:57:59.310Z,5.21
2018-03-31T04:58:59.278Z,5.3
2018-03-31T04:59:59.252Z,5.32
2018-03-31T05:00:58.977Z,5.29
2018-03-31T05:01:59.194Z,5.36
2018-03-31T05:02:59.160Z,5.32
2018-03-31T05:03:58.897Z,5.29
2018-03-31T05:04:59.122Z,5.3
2018-03-31T05:05:59.079Z,5.35
2018-03-31T05:06:59.062Z,5.3
2018-03-31T05:07:59.027Z,5.33
2018-03-31T05:08:59.107Z,5.33
2018-03-31T05:09:59.014Z,5.25
2018-03-31T05:10:58.783Z,5.18
2018-03-31T05:11:58.978Z,5.26
2018-03-31T05:12:58.880Z,5.26
2018-03-31T05:13:58.601Z,5.25
2018-03-31T05:14:58.819Z,5.21
2018-03-31T05:15:58.789Z,5.32
2018-03-31T05:16:58.510Z,5.32
2018-03-31T05:17:58.805Z,5.3
2018-03-31T05:18:58.709Z,5.29
2018-03-31T05:19:58.675Z,5.33
2018-03-31T05:20:58.648Z,5.32
2018-03-31T05:21:58.620Z,5.35
2018-03-31T05:22:58.603Z,5.33
2018-03-31T05:23:58.559Z,5.44
2018-03-31T05:24:58.528Z,5.47
2018-03-31T05:25:58.502Z,5.47
2018-03-31T05:26:58.480Z,5.43
2018-03-31T05:27:58.198Z,5.48
2018-03-31T05:28:58.414Z,5.54
2018-03-31T05:29:57.895Z,5.54
2018-03-31T05:30:58.364Z,5.54
2018-03-31T05:31:58.118Z,5.53
2018-03-31T05:32:58.318Z,5.61
2018-03-31T05:33:58.277Z,5.54
2018-03-31T05:34:58.251Z,5.62
2018-03-31T05:35:58.227Z,5.64
2018-03-31T05:36:58.192Z,5.65
2018-03-31T05:37:58.163Z,5.64
2018-03-31T05:38:58.133Z,5.68
2018-03-31T05:39:58.106Z,5.73
2018-03-31T05:40:58.081Z,5.68
2018-03-31T05:41:58.055Z,5.71
2018-03-31T05:42:58.022Z,5.73
2018-03-31T05:43:57.743Z,5.8
2018-03-31T05:44:57.968Z,5.71
2018-03-31T05:45:57.933Z,5.72
2018-03-31T05:46:57.904Z,5.83
2018-03-31T05:47:57.882Z,5.83
2018-03-31T05:48:57.854Z,5.84
2018-03-31T05:49:57.827Z,5.91
2018-03-31T05:50:57.900Z,5.86
2018-03-31T05:51:57.769Z,5.8
2018-03-31T05:52:57.735Z,5.84
2018-03-31T05:53:57.713Z,5.82
2018-03-31T05:54:57.684Z,5.89
2018-03-31T05:55:57.656Z,5.87
2018-03-31T05:56:57.628Z,5.91
2018-03-31T05:57:57.103Z,5.94
2018-03-31T05:58:57.571Z,6.01
2018-03-31T05:59:57.546Z,5.99
2018-03-31T06:00:57.514Z,6.01
2018-03-31T06:01:57.488Z,6.04
2018-03-31T06:02:57.217Z,6.05
2018-03-31T06:03:57.433Z,6.07
2018-03-31T06:04:57.403Z,6.07
2018-03-31T06:05:57.384Z,6.05
2018-03-31T06:06:57.347Z,6.12
2018-03-31T06:07:57.328Z,6.11
2018-03-31T06:08:57.099Z,6.17
2018-03-31T06:09:57.268Z,6.17
2018-03-31T06:10:57.240Z,6.07
2018-03-31T06:11:57.218Z,6.12
2018-03-31T06:12:57.186Z,6.17
2018-03-31T06:13:57.180Z,6.19
2018-03-31T06:14:57.131Z,6.22
2018-03-31T06:15:57.105Z,6.16
2018-03-31T06:16:57.076Z,6.28
2018-03-31T06:17:57.046Z,6.31
2018-03-31T06:18:57.018Z,6.35
2018-03-31T06:19:56.991Z,6.45
2018-03-31T06:20:56.720Z,6.42
2018-03-31T06:21:56.940Z,6.46
2018-03-31T06:22:56.913Z,6.48
2018-03-31T06:23:56.908Z,6.52
2018-03-31T06:24:56.858Z,6.49
2018-03-31T06:25:56.829Z,6.51
2018-03-31T06:26:56.872Z,6.64
2018-03-31T06:27:56.781Z,6.67
2018-03-31T06:28:56.761Z,6.63
2018-03-31T06:29:56.523Z,6.6
2018-03-31T06:30:56.710Z,6.69
2018-03-31T06:31:56.747Z,6.75
2018-03-31T06:32:56.643Z,6.72
2018-03-31T06:33:56.627Z,6.75
2018-03-31T06:34:56.593Z,6.79
2018-03-31T06:35:56.566Z,6.81
2018-03-31T06:36:56.538Z,6.89
2018-03-31T06:37:56.261Z,6.87
2018-03-31T06:38:56.495Z,6.92
2018-03-31T06:39:56.459Z,6.96
2018-03-31T06:40:56.433Z,6.92
2018-03-31T06:41:56.407Z,6.96
2018-03-31T06:42:56.137Z,6.89
2018-03-31T06:43:56.428Z,7.03
2018-03-31T06:44:56.338Z,7.07
2018-03-31T06:45:56.303Z,7.1
2018-03-31T06:46:56.378Z,7.13
2018-03-31T06:47:56.251Z,7.25
2018-03-31T06:48:56.228Z,7.32
2018-03-31T06:49:56.206Z,7.33
2018-03-31T06:50:56.178Z,7.36
2018-03-31T06:51:56.144Z,7.33
2018-03-31T06:52:56.128Z,7.32
2018-03-31T06:53:56.095Z,7.38
2018-03-31T06:54:55.822Z,7.4
2018-03-31T06:55:56.047Z,7.43
2018-03-31T06:56:56.019Z,7.39
2018-03-31T06:57:55.987Z,7.5
2018-03-31T06:58:55.718Z,7.48
2018-03-31T06:59:55.944Z,7.43
2018-03-31T07:00:55.669Z,7.48
2018-03-31T07:01:55.893Z,7.61
2018-03-31T07:02:55.865Z,7.61
2018-03-31T07:03:55.846Z,7.58
2018-03-31T07:04:55.814Z,7.73
2018-03-31T07:05:55.789Z,7.75
2018-03-31T07:06:55.763Z,7.83
2018-03-31T07:07:55.739Z,7.8
2018-03-31T07:08:55.712Z,7.87
2018-03-31T07:09:55.686Z,7.91
2018-03-31T07:10:55.667Z,7.95
2018-03-31T07:11:55.636Z,7.94
2018-03-31T07:12:55.358Z,7.98
2018-03-31T07:13:55.331Z,8
2018-03-31T07:14:55.558Z,8.09
2018-03-31T07:15:55.039Z,8.05
2018-03-31T07:16:55.259Z,8.06
2018-03-31T07:17:55.491Z,8.1
2018-03-31T07:18:55.208Z,8.05
2018-03-31T07:19:55.433Z,8.1
2018-03-31T07:20:54.911Z,8.23
2018-03-31T07:21:55.388Z,8.23
2018-03-31T07:22:55.367Z,8.28
2018-03-31T07:23:55.340Z,8.34
2018-03-31T07:24:55.318Z,8.34
2018-03-31T07:25:55.038Z,8.42
2018-03-31T07:26:55.273Z,8.45
2018-03-31T07:27:54.735Z,8.45
2018-03-31T07:28:55.208Z,8.44
2018-03-31T07:29:55.185Z,8.46
2018-03-31T07:30:55.165Z,8.6
2018-03-31T07:31:54.639Z,8.58
2018-03-31T07:32:55.113Z,8.58
2018-03-31T07:33:55.089Z,8.69
2018-03-31T07:34:55.059Z,8.69
2018-03-31T07:35:55.035Z,8.67
2018-03-31T07:36:55.017Z,8.71
2018-03-31T07:37:54.998Z,8.73
2018-03-31T07:38:55.377Z,8.7
2018-03-31T07:39:54.992Z,8.7
2018-03-31T07:40:54.916Z,8.78
2018-03-31T07:41:54.898Z,8.81
2018-03-31T07:42:54.914Z,8.79
2018-03-31T07:43:54.595Z,8.76
2018-03-31T07:44:54.571Z,8.76
2018-03-31T07:45:54.800Z,8.79
2018-03-31T07:46:54.524Z,8.87
2018-03-31T07:47:54.749Z,8.82
2018-03-31T07:48:54.719Z,8.81
2018-03-31T07:49:54.699Z,8.84
2018-03-31T07:50:54.674Z,8.85
2018-03-31T07:51:54.650Z,8.84
2018-03-31T07:52:54.622Z,8.84
2018-03-31T07:53:54.607Z,8.87
2018-03-31T07:54:54.328Z,8.91
2018-03-31T07:55:54.556Z,8.91
2018-03-31T07:56:54.281Z,8.94
2018-03-31T07:57:54.507Z,8.92
2018-03-31T07:58:54.480Z,8.99
2018-03-31T07:59:54.457Z,9
2018-03-31T08:00:54.434Z,9.1
2018-03-31T08:01:54.408Z,9.14
2018-03-31T08:02:54.386Z,9.08
2018-03-31T08:03:54.112Z,9.13
2018-03-31T08:04:54.332Z,9.14
2018-03-31T08:05:54.306Z,9.19
2018-03-31T08:06:54.294Z,9.21
2018-03-31T08:07:54.264Z,9.28
2018-03-31T08:08:54.238Z,9.26
2018-03-31T08:09:53.965Z,9.26
2018-03-31T08:10:54.192Z,9.37
2018-03-31T08:11:54.170Z,9.25
2018-03-31T08:12:54.143Z,9.39
2018-03-31T08:13:53.867Z,9.37
2018-03-31T08:14:54.097Z,9.34
2018-03-31T08:15:53.819Z,9.46
2018-03-31T08:16:54.045Z,9.54
2018-03-31T08:17:54.021Z,9.39
2018-03-31T08:18:53.994Z,9.47
2018-03-31T08:19:53.727Z,9.58
2018-03-31T08:20:53.703Z,9.64
2018-03-31T08:21:53.430Z,9.65
2018-03-31T08:22:53.902Z,9.66
2018-03-31T08:23:53.881Z,9.77
2018-03-31T08:24:53.855Z,9.86
2018-03-31T08:25:53.837Z,9.86
2018-03-31T08:26:53.813Z,9.98
2018-03-31T08:27:53.784Z,9.89
2018-03-31T08:28:53.764Z,10.04
2018-03-31T08:29:53.739Z,10.09
2018-03-31T08:30:53.714Z,10.13
2018-03-31T08:31:53.443Z,10.15
2018-03-31T08:32:53.419Z,10.19
2018-03-31T08:33:53.403Z,10.1
2018-03-31T08:34:53.625Z,10.1
2018-03-31T08:35:53.352Z,10.17
2018-03-31T08:36:53.580Z,10.1
2018-03-31T08:37:53.563Z,10.22
2018-03-31T08:38:53.533Z,10.22
2018-03-31T08:39:53.255Z,10.2
2018-03-31T08:40:53.488Z,10.2
2018-03-31T08:41:53.211Z,10.19
2018-03-31T08:42:53.439Z,10.3
2018-03-31T08:43:53.515Z,10.19
2018-03-31T08:44:53.390Z,10.25
2018-03-31T08:45:53.118Z,10.37
2018-03-31T08:46:53.348Z,10.37
2018-03-31T08:47:53.326Z,10.38
2018-03-31T08:48:53.306Z,10.35
2018-03-31T08:49:53.277Z,10.51
2018-03-31T08:50:53.005Z,10.37
2018-03-31T08:51:53.235Z,10.51
2018-03-31T08:52:53.205Z,10.54
2018-03-31T08:53:53.183Z,10.57
2018-03-31T08:54:53.162Z,10.59
2018-03-31T08:55:52.904Z,10.61
2018-03-31T08:56:52.871Z,10.72
2018-03-31T08:57:53.093Z,10.74
2018-03-31T08:58:53.069Z,10.74
2018-03-31T08:59:53.046Z,10.76
2018-03-31T09:00:53.030Z,10.71
2018-03-31T09:01:53.005Z,10.81
2018-03-31T09:02:52.980Z,10.71
2018-03-31T09:03:53.064Z,10.64
2018-03-31T09:04:52.937Z,10.68
2018-03-31T09:05:52.912Z,10.68
2018-03-31T09:06:52.888Z,10.63
2018-03-31T09:07:52.871Z,10.61
2018-03-31T09:08:52.849Z,10.54
2018-03-31T09:09:52.818Z,10.63
2018-03-31T09:10:52.549Z,10.61
2018-03-31T09:11:52.528Z,10.69
2018-03-31T09:12:52.765Z,10.64
2018-03-31T09:13:52.751Z,10.72
2018-03-31T09:14:52.712Z,10.68
2018-03-31T09:15:52.443Z,10.67
2018-03-31T09:16:52.661Z,10.69
2018-03-31T09:17:52.634Z,10.56
2018-03-31T09:18:52.613Z,10.56
2018-03-31T09:19:52.590Z,10.6
2018-03-31T09:20:52.565Z,10.56
2018-03-31T09:21:52.560Z,10.61
2018-03-31T09:22:52.523Z,10.61
2018-03-31T09:23:52.500Z,10.59
2018-03-31T09:24:52.228Z,10.57
2018-03-31T09:25:52.203Z,10.56
2018-03-31T09:26:52.435Z,10.63
2018-03-31T09:27:52.415Z,10.57
2018-03-31T09:28:52.385Z,10.68
2018-03-31T09:29:52.359Z,10.72
2018-03-31T09:30:52.340Z,10.72
2018-03-31T09:31:52.313Z,10.64
2018-03-31T09:32:52.292Z,10.69
2018-03-31T09:33:52.268Z,10.68
2018-03-31T09:34:52.253Z,10.71
2018-03-31T09:35:51.971Z,10.74
2018-03-31T09:36:52.202Z,10.74
2018-03-31T09:37:52.060Z,10.74
2018-03-31T09:38:52.150Z,10.78
2018-03-31T09:39:52.134Z,10.72
2018-03-31T09:40:52.108Z,10.69
2018-03-31T09:41:52.090Z,10.78
2018-03-31T09:42:52.106Z,10.84
2018-03-31T09:43:52.038Z,10.78
2018-03-31T09:44:51.872Z,10.87
2018-03-31T09:45:51.747Z,10.86
2018-03-31T09:46:52.193Z,10.92
2018-03-31T09:47:51.702Z,10.84
2018-03-31T09:48:51.925Z,10.93
2018-03-31T09:49:51.898Z,10.92
2018-03-31T09:50:51.878Z,10.99
2018-03-31T09:51:51.860Z,10.96
2018-03-31T09:52:51.837Z,11.05
2018-03-31T09:53:51.569Z,11.08
2018-03-31T09:54:51.541Z,11.08
2018-03-31T09:55:51.759Z,11.07
2018-03-31T09:56:51.792Z,11.05
2018-03-31T09:57:51.471Z,11
2018-03-31T09:58:51.700Z,10.99
2018-03-31T09:59:51.672Z,11.11
2018-03-31T10:00:51.651Z,11.11
2018-03-31T10:01:51.629Z,11.14
2018-03-31T10:02:51.599Z,11.22
2018-03-31T10:03:51.588Z,11.19
2018-03-31T10:04:51.557Z,11.19
2018-03-31T10:05:51.542Z,11.26
2018-03-31T10:06:51.514Z,11.32
2018-03-31T10:07:51.242Z,11.32
2018-03-31T10:08:51.475Z,11.4
2018-03-31T10:09:51.239Z,11.44
2018-03-31T10:10:51.419Z,11.47
2018-03-31T10:11:51.395Z,11.43
2018-03-31T10:12:51.376Z,11.51
2018-03-31T10:13:51.354Z,11.52
2018-03-31T10:14:51.419Z,11.43
2018-03-31T10:15:51.306Z,11.51
2018-03-31T10:16:51.286Z,11.5
2018-03-31T10:17:51.267Z,11.54
2018-03-31T10:18:50.990Z,11.47
2018-03-31T10:19:51.219Z,11.59
2018-03-31T10:20:50.949Z,11.54
2018-03-31T10:21:50.923Z,11.51
2018-03-31T10:22:52.338Z,11.51
2018-03-31T10:23:50.879Z,11.66
2018-03-31T10:24:51.105Z,11.62
2018-03-31T10:25:51.117Z,11.57
2018-03-31T10:26:51.067Z,11.73
2018-03-31T10:27:51.038Z,11.72
2018-03-31T10:28:50.769Z,11.75
2018-03-31T10:29:51.007Z,11.83
2018-03-31T10:30:50.972Z,11.8
2018-03-31T10:31:50.700Z,11.84
2018-03-31T10:32:50.688Z,11.86
2018-03-31T10:33:50.950Z,11.97
2018-03-31T10:34:50.881Z,12
2018-03-31T10:35:50.611Z,12
2018-03-31T10:36:50.841Z,12.09
2018-03-31T10:37:50.565Z,12.09
2018-03-31T10:38:50.800Z,12.15
2018-03-31T10:39:50.771Z,12.31
2018-03-31T10:40:50.752Z,12.29
2018-03-31T10:41:50.831Z,12.21
2018-03-31T10:42:50.457Z,12.22
2018-03-31T10:43:50.690Z,12.27
2018-03-31T10:44:50.660Z,12.28
2018-03-31T10:45:50.645Z,12.22
2018-03-31T10:46:50.618Z,12.2
2018-03-31T10:47:50.597Z,12.22
2018-03-31T10:48:50.576Z,12.21
2018-03-31T10:49:50.551Z,12.24
2018-03-31T10:50:50.537Z,12.31
2018-03-31T10:51:50.262Z,12.37
2018-03-31T10:52:50.497Z,12.39
2018-03-31T10:53:50.470Z,12.49
2018-03-31T10:54:50.454Z,12.39
2018-03-31T10:55:50.438Z,12.45
2018-03-31T10:56:49.910Z,12.54
2018-03-31T10:57:50.387Z,12.49
2018-03-31T10:58:50.367Z,12.46
2018-03-31T10:59:50.359Z,12.53
2018-03-31T11:00:50.330Z,12.5
2018-03-31T11:01:50.306Z,12.46
2018-03-31T11:02:50.286Z,12.49
2018-03-31T11:03:50.015Z,12.65
2018-03-31T11:04:50.250Z,12.57
2018-03-31T11:05:50.231Z,12.8
2018-03-31T11:06:50.232Z,12.85
2018-03-31T11:07:49.936Z,12.83
2018-03-31T11:08:49.917Z,12.86
2018-03-31T11:09:50.145Z,12.91
2018-03-31T11:10:49.878Z,12.86
2018-03-31T11:11:49.860Z,12.95
2018-03-31T11:12:49.840Z,12.94
2018-03-31T11:13:50.067Z,12.94
2018-03-31T11:14:50.045Z,12.93
2018-03-31T11:15:50.026Z,13
2018-03-31T11:16:49.752Z,13.03
2018-03-31T11:17:50.020Z,13.05
2018-03-31T11:18:49.970Z,13.05
2018-03-31T11:19:49.951Z,12.95
2018-03-31T11:20:49.682Z,13.09
2018-03-31T11:21:49.660Z,13.16
2018-03-31T11:22:49.898Z,13.11
2018-03-31T11:23:49.872Z,13.01
2018-03-31T11:24:49.858Z,13.03
2018-03-31T11:25:49.833Z,12.95
2018-03-31T11:26:49.925Z,12.85
2018-03-31T11:27:49.552Z,12.83
2018-03-31T11:28:49.781Z,12.95
2018-03-31T11:29:49.771Z,12.91
2018-03-31T11:30:49.739Z,12.87
2018-03-31T11:31:49.728Z,12.91
2018-03-31T11:32:49.704Z,12.95
2018-03-31T11:33:49.683Z,12.95
2018-03-31T11:34:49.418Z,13.03
2018-03-31T11:35:49.650Z,13.23
2018-03-31T11:36:49.383Z,13.46
2018-03-31T11:37:49.612Z,13.39
2018-03-31T11:38:49.605Z,13.52
2018-03-31T11:39:49.577Z,13.6
2018-03-31T11:40:49.604Z,13.77
2018-03-31T11:41:49.539Z,13.89
2018-03-31T11:42:49.523Z,13.99
2018-03-31T11:43:49.500Z,14.04
2018-03-31T11:44:49.487Z,14.05
2018-03-31T11:45:49.467Z,14.1
2018-03-31T11:46:49.450Z,14.18
2018-03-31T11:47:49.435Z,14.11
2018-03-31T11:48:49.418Z,14.12
2018-03-31T11:49:49.404Z,14.14
2018-03-31T11:50:49.375Z,14.03
2018-03-31T11:51:49.361Z,13.95
2018-03-31T11:52:49.347Z,13.85
2018-03-31T11:53:49.325Z,13.75
2018-03-31T11:54:49.307Z,13.57
2018-03-31T11:55:49.039Z,13.49
2018-03-31T11:56:49.273Z,13.47
2018-03-31T11:57:49.253Z,13.47
2018-03-31T11:58:48.729Z,13.41
2018-03-31T11:59:49.212Z,13.22
2018-03-31T12:00:49.202Z,13.25
2018-03-31T12:01:49.168Z,13.22
2018-03-31T12:02:49.164Z,13.25
2018-03-31T12:03:48.886Z,13.22
2018-03-31T12:04:49.114Z,13.37
2018-03-31T12:05:48.848Z,13.28
2018-03-31T12:06:49.076Z,13.19
2018-03-31T12:07:48.562Z,13.16
2018-03-31T12:08:49.042Z,13.08
2018-03-31T12:09:48.774Z,12.91
2018-03-31T12:10:48.763Z,12.9
2018-03-31T12:11:49.041Z,12.83
2018-03-31T12:12:48.960Z,12.83
2018-03-31T12:13:48.947Z,12.83
2018-03-31T12:14:48.924Z,12.8
2018-03-31T12:15:48.902Z,12.73
2018-03-31T12:16:48.883Z,12.61
2018-03-31T12:17:48.868Z,12.58
2018-03-31T12:18:48.844Z,12.62
2018-03-31T12:19:48.828Z,12.65
2018-03-31T12:20:48.805Z,12.61
2018-03-31T12:21:48.780Z,12.64
2018-03-31T12:22:48.761Z,12.65
2018-03-31T12:23:48.748Z,12.76
2018-03-31T12:24:48.726Z,12.72
2018-03-31T12:25:48.705Z,12.73
2018-03-31T12:26:48.691Z,12.83
2018-03-31T12:27:48.662Z,12.76
2018-03-31T12:28:48.646Z,12.78
2018-03-31T12:29:48.376Z,12.85
2018-03-31T12:30:48.604Z,12.85
2018-03-31T12:31:48.590Z,12.79
2018-03-31T12:32:48.567Z,12.94
2018-03-31T12:33:48.548Z,12.93
2018-03-31T12:34:48.288Z,12.94
2018-03-31T12:35:48.517Z,13
2018-03-31T12:36:48.524Z,13.08
2018-03-31T12:37:48.477Z,13.22
2018-03-31T12:38:48.448Z,13.39
2018-03-31T12:39:48.434Z,13.5
2018-03-31T12:40:48.408Z,13.57
2018-03-31T12:41:48.149Z,13.83
2018-03-31T12:42:48.372Z,13.99
2018-03-31T12:43:48.354Z,14.11
2018-03-31T12:44:48.375Z,14.32
2018-03-31T12:45:48.336Z,14.35
2018-03-31T12:46:48.307Z,14.36
2018-03-31T12:47:48.291Z,14.41
2018-03-31T12:48:48.021Z,14.4
2018-03-31T12:49:47.997Z,14.41
2018-03-31T12:50:48.228Z,14.36
2018-03-31T12:51:48.350Z,14.33
2018-03-31T12:52:48.193Z,14.33
2018-03-31T12:53:48.169Z,14.26
2018-03-31T12:54:48.156Z,14.35
2018-03-31T12:55:48.149Z,14.37
2018-03-31T12:56:48.137Z,14.36
2018-03-31T12:57:48.105Z,14.48
2018-03-31T12:58:48.092Z,14.53
2018-03-31T12:59:48.070Z,14.6
2018-03-31T13:00:48.054Z,14.62
2018-03-31T13:01:48.038Z,14.7
2018-03-31T13:02:48.020Z,14.94
2018-03-31T13:03:48.003Z,15.06
2018-03-31T13:04:47.994Z,15.14
2018-03-31T13:05:47.966Z,15.19
2018-03-31T13:06:47.951Z,15.35
2018-03-31T13:07:47.686Z,15.35
2018-03-31T13:08:47.915Z,15.27
2018-03-31T13:09:47.909Z,15.19
2018-03-31T13:10:47.898Z,15.1